Time;durP1;ratioP1;P1;durP2;ratioP2;P2;SDS_P1;SDS_P2;PMS_P1;PMS_P2;Temp;Humidity;BMP_temperature;BMP_pressure;BME280_temperature;BME280_humidity;BME280_pressure;Samples;Min_cycle;Max_cycle;Signal;HPM_P1;HPM_P2
2022/03/29 00:00:10;;;;;;;;;;;10.80;78.50;;;;;;5041010;28;19997;-68
2022/03/29 00:02:36;;;;;;;;;;;10.80;78.60;;;;;;5057189;28;20556;-68
2022/03/29 00:05:04;;;;;;;;;;;10.70;78.50;;;;;;5057514;28;20003;-68
2022/03/29 00:07:30;;;;;;;;;;;10.70;78.60;;;;;;5045106;28;20353;-68
2022/03/29 00:09:55;;;;;;;;;;;10.70;78.50;;;;;;5047826;28;19975;-67
2022/03/29 00:12:21;;;;;;;;;;;10.70;78.70;;;;;;5052350;28;19923;-67
2022/03/29 00:14:46;;;;;;;;;;;10.70;78.60;;;;;;5058086;28;19995;-68
2022/03/29 00:17:12;;;;;;;;;;;10.60;78.60;;;;;;5057462;28;19921;-68
2022/03/29 00:19:37;;;;;;;;;;;10.60;78.70;;;;;;5051418;28;19913;-67
2022/03/29 00:22:03;;;;;;;;;;;10.60;78.70;;;;;;5057343;28;19940;-68
2022/03/29 00:24:28;;;;;;;;;;;10.60;78.60;;;;;;5043475;28;19912;-67
2022/03/29 00:26:54;;;;;;;;;;;10.60;78.80;;;;;;5057740;28;20372;-68
2022/03/29 00:29:19;;;;;;;;;;;10.50;79.40;;;;;;5056076;28;19916;-67
2022/03/29 00:31:45;;;;;;;;;;;10.50;78.80;;;;;;5057543;28;19916;-68
2022/03/29 00:34:10;;;;;;;;;;;10.50;78.80;;;;;;5053417;28;19909;-68
2022/03/29 00:36:36;;;;;;;;;;;10.50;78.80;;;;;;5049693;28;19915;-68
2022/03/29 00:39:02;;;;;;;;;;;10.50;79.00;;;;;;5054224;28;19939;-68
2022/03/29 00:41:28;;;;;;;;;;;10.50;79.10;;;;;;5058491;28;20337;-68
2022/03/29 00:43:53;;;;;;;;;;;10.40;79.00;;;;;;5051338;28;20613;-67
2022/03/29 00:46:20;;;;;;;;;;;10.40;79.00;;;;;;5054631;28;19917;-68
2022/03/29 00:48:45;;;;;;;;;;;10.40;79.10;;;;;;5056884;28;19925;-68
2022/03/29 00:51:11;;;;;;;;;;;10.40;79.10;;;;;;5057003;28;19920;-68
2022/03/29 00:53:38;;;;;;;;;;;10.40;79.10;;;;;;5046351;28;19916;-68
2022/03/29 00:56:03;;;;;;;;;;;10.30;79.00;;;;;;5055283;28;19909;-68
2022/03/29 00:58:29;;;;;;;;;;;10.30;79.10;;;;;;5059149;28;20337;-68
2022/03/29 01:00:58;;;;;;;;;;;10.30;79.10;;;;;;5051944;28;19917;-67
2022/03/29 01:03:24;;;;;;;;;;;10.30;79.10;;;;;;5052708;28;19943;-68
2022/03/29 01:05:49;;;;;;;;;;;10.30;79.20;;;;;;5055905;28;20368;-68
2022/03/29 01:08:15;;;;;;;;;;;10.20;79.10;;;;;;5054401;28;19920;-68
2022/03/29 01:10:43;;;;;;;;;;;10.20;79.20;;;;;;5056195;28;20391;-68
2022/03/29 01:13:09;;;;;;;;;;;10.20;79.20;;;;;;5054945;28;20011;-68
2022/03/29 01:15:36;;;;;;;;;;;10.20;79.10;;;;;;5045371;28;20019;-67
2022/03/29 01:18:01;;;;;;;;;;;10.20;79.10;;;;;;5047626;28;20473;-68
2022/03/29 01:20:28;;;;;;;;;;;10.20;79.20;;;;;;5050430;28;19913;-68
2022/03/29 01:22:54;;;;;;;;;;;10.20;79.30;;;;;;5056973;28;20384;-67
2022/03/29 01:25:22;;;;;;;;;;;10.20;79.30;;;;;;5057617;28;19940;-68
2022/03/29 01:27:48;;;;;;;;;;;10.20;79.30;;;;;;5048375;28;20243;-67
2022/03/29 01:30:17;;;;;;;;;;;10.10;79.20;;;;;;5057267;28;19916;-67
2022/03/29 01:32:43;;;;;;;;;;;10.10;79.30;;;;;;5034840;28;19929;-68
2022/03/29 01:35:09;;;;;;;;;;;10.10;79.30;;;;;;5046390;28;19916;-68
2022/03/29 01:37:35;;;;;;;;;;;10.10;79.40;;;;;;5056124;28;20539;-68
2022/03/29 01:40:04;;;;;;;;;;;10.10;79.40;;;;;;5060461;28;20379;-67
2022/03/29 01:42:30;;;;;;;;;;;10.10;79.40;;;;;;5059577;28;19919;-68
2022/03/29 01:44:55;;;;;;;;;;;10.10;79.30;;;;;;5055572;28;19908;-68
2022/03/29 01:47:21;;;;;;;;;;;10.00;79.40;;;;;;5058909;28;19943;-68
2022/03/29 01:49:49;;;;;;;;;;;10.00;79.30;;;;;;5059066;28;19923;-68
2022/03/29 01:52:15;;;;;;;;;;;10.00;79.40;;;;;;5055443;28;19924;-67
2022/03/29 01:54:41;;;;;;;;;;;10.00;79.40;;;;;;5045767;28;20019;-68
2022/03/29 01:57:07;;;;;;;;;;;10.00;79.30;;;;;;5060142;28;19966;-68
2022/03/29 02:00:30;;;;;;;;;;;10.00;79.40;;;;;;5055355;28;19912;-67
2022/03/29 02:02:18;;;;;;;;;;;10.00;79.40;;;;;;5057225;28;20362;-68
2022/03/29 02:04:43;;;;;;;;;;;10.00;79.50;;;;;;5057151;28;19923;-68
2022/03/29 02:07:09;;;;;;;;;;;10.00;79.50;;;;;;5061339;28;20342;-68
2022/03/29 02:09:34;;;;;;;;;;;9.90;79.40;;;;;;5059260;28;19913;-68
2022/03/29 02:12:01;;;;;;;;;;;9.90;79.50;;;;;;5056602;28;19924;-68
2022/03/29 02:14:26;;;;;;;;;;;9.90;79.40;;;;;;5061813;28;19912;-68
2022/03/29 02:16:52;;;;;;;;;;;9.90;79.50;;;;;;5053312;28;19920;-68
2022/03/29 02:19:17;;;;;;;;;;;9.90;79.50;;;;;;5042174;28;19912;-68
2022/03/29 02:21:43;;;;;;;;;;;9.90;79.50;;;;;;5059252;28;19995;-68
2022/03/29 02:24:08;;;;;;;;;;;9.90;79.60;;;;;;5046179;28;19927;-67
2022/03/29 02:26:34;;;;;;;;;;;9.90;79.60;;;;;;5039472;28;19913;-68
2022/03/29 02:28:59;;;;;;;;;;;9.80;79.50;;;;;;5060629;28;19974;-67
2022/03/29 02:31:24;;;;;;;;;;;9.90;79.60;;;;;;5059704;28;19936;-67
2022/03/29 02:33:50;;;;;;;;;;;9.90;79.60;;;;;;5061141;28;19916;-68
2022/03/29 02:36:18;;;;;;;;;;;9.90;79.70;;;;;;5050658;28;19995;-68
2022/03/29 02:38:43;;;;;;;;;;;9.90;79.60;;;;;;5058254;28;20559;-68
2022/03/29 02:41:09;;;;;;;;;;;9.80;79.60;;;;;;5057183;28;19921;-68
2022/03/29 02:43:34;;;;;;;;;;;9.80;79.60;;;;;;5054309;28;20516;-68
2022/03/29 02:46:00;;;;;;;;;;;9.80;79.60;;;;;;5051872;28;20296;-68
2022/03/29 02:48:26;;;;;;;;;;;9.90;79.60;;;;;;5057200;28;19927;-68
2022/03/29 02:50:51;;;;;;;;;;;9.80;79.60;;;;;;5046917;28;20436;-68
2022/03/29 02:53:17;;;;;;;;;;;9.80;79.70;;;;;;5052318;28;19963;-68
2022/03/29 02:55:42;;;;;;;;;;;9.80;79.70;;;;;;5055794;28;19909;-68
2022/03/29 02:58:12;;;;;;;;;;;9.80;79.70;;;;;;5058108;28;20623;-68
2022/03/29 03:00:37;;;;;;;;;;;9.80;79.70;;;;;;5054160;28;19948;-68
2022/03/29 03:03:03;;;;;;;;;;;9.80;79.80;;;;;;5053610;28;20552;-68
2022/03/29 03:05:29;;;;;;;;;;;9.80;79.70;;;;;;5056845;28;19917;-68
2022/03/29 03:07:55;;;;;;;;;;;9.80;79.70;;;;;;5053821;28;20403;-68
2022/03/29 03:10:20;;;;;;;;;;;9.70;79.70;;;;;;5052856;28;19960;-68
2022/03/29 03:12:47;;;;;;;;;;;9.70;79.70;;;;;;5056107;28;19967;-68
2022/03/29 03:15:14;;;;;;;;;;;9.70;79.80;;;;;;5056012;28;19927;-68
2022/03/29 03:17:39;;;;;;;;;;;9.70;79.70;;;;;;5056541;28;19921;-68
2022/03/29 03:20:05;;;;;;;;;;;9.70;79.70;;;;;;5052962;28;20510;-68
2022/03/29 03:22:31;;;;;;;;;;;9.70;80.40;;;;;;5057119;28;19909;-68
2022/03/29 03:24:57;;;;;;;;;;;9.70;79.90;;;;;;5052512;28;19920;-68
2022/03/29 03:27:23;;;;;;;;;;;9.70;79.80;;;;;;5052099;28;19909;-68
2022/03/29 03:29:49;;;;;;;;;;;9.70;79.70;;;;;;5056749;28;19956;-68
2022/03/29 03:32:14;;;;;;;;;;;9.70;79.70;;;;;;5044063;28;19936;-68
2022/03/29 03:34:40;;;;;;;;;;;9.70;79.80;;;;;;5058913;28;20334;-68
2022/03/29 03:37:06;;;;;;;;;;;9.70;79.70;;;;;;5053079;28;19912;-68
2022/03/29 03:39:34;;;;;;;;;;;9.70;79.80;;;;;;5056054;28;19909;-68
2022/03/29 03:42:03;;;;;;;;;;;9.70;79.80;;;;;;5044975;28;19919;-68
2022/03/29 03:44:28;;;;;;;;;;;9.60;79.70;;;;;;5032152;28;19917;-68
2022/03/29 03:46:54;;;;;;;;;;;9.70;79.80;;;;;;5052948;28;19923;-68
2022/03/29 03:49:20;;;;;;;;;;;9.60;79.70;;;;;;5053883;28;20007;-67
2022/03/29 03:51:45;;;;;;;;;;;9.70;79.90;;;;;;5051687;28;19919;-68
2022/03/29 03:54:11;;;;;;;;;;;9.60;79.80;;;;;;5052616;28;19909;-68
2022/03/29 03:56:37;;;;;;;;;;;9.60;79.80;;;;;;5057101;28;19913;-68
2022/03/29 03:59:02;;;;;;;;;;;9.60;79.60;;;;;;5053846;28;19909;-68
2022/03/29 04:01:28;;;;;;;;;;;9.60;79.80;;;;;;5054509;28;19927;-68
2022/03/29 04:03:53;;;;;;;;;;;9.60;79.80;;;;;;5053455;28;20377;-68
2022/03/29 04:06:19;;;;;;;;;;;9.60;79.90;;;;;;5033681;28;19955;-68
2022/03/29 04:08:44;;;;;;;;;;;9.60;79.90;;;;;;5055683;28;20020;-68
2022/03/29 04:11:10;;;;;;;;;;;9.60;79.90;;;;;;5045025;28;19912;-68
2022/03/29 04:13:35;;;;;;;;;;;9.60;80.00;;;;;;5055763;28;20404;-68
2022/03/29 04:16:01;;;;;;;;;;;9.60;80.10;;;;;;5052608;28;19946;-68
2022/03/29 04:18:27;;;;;;;;;;;9.50;80.00;;;;;;5039436;28;20027;-68
2022/03/29 04:20:53;;;;;;;;;;;9.50;80.10;;;;;;5054220;28;19917;-68
2022/03/29 04:23:19;;;;;;;;;;;9.50;80.10;;;;;;5053495;28;20478;-68
2022/03/29 04:25:44;;;;;;;;;;;9.50;80.20;;;;;;5056739;28;19921;-68
2022/03/29 04:28:10;;;;;;;;;;;9.50;80.10;;;;;;5045539;28;19920;-68
2022/03/29 04:30:35;;;;;;;;;;;9.50;80.10;;;;;;5056033;28;19987;-68
2022/03/29 04:33:01;;;;;;;;;;;9.50;80.00;;;;;;5053806;28;19920;-68
2022/03/29 04:35:29;;;;;;;;;;;9.50;80.10;;;;;;5051350;28;19913;-68
2022/03/29 04:37:54;;;;;;;;;;;9.50;80.00;;;;;;5054080;28;19920;-68
2022/03/29 04:40:20;;;;;;;;;;;9.50;80.10;;;;;;5051085;28;19920;-68
2022/03/29 04:42:47;;;;;;;;;;;9.50;80.10;;;;;;5046477;28;19908;-68
2022/03/29 04:45:13;;;;;;;;;;;9.40;80.00;;;;;;5034152;28;19909;-68
2022/03/29 04:47:40;;;;;;;;;;;9.40;80.10;;;;;;5054267;28;20476;-68
2022/03/29 04:50:06;;;;;;;;;;;9.40;80.10;;;;;;5051362;28;20320;-68
2022/03/29 04:52:31;;;;;;;;;;;9.40;80.30;;;;;;5052044;28;20721;-68
2022/03/29 04:54:57;;;;;;;;;;;9.40;80.20;;;;;;5055317;28;19920;-68
2022/03/29 04:57:22;;;;;;;;;;;9.40;80.30;;;;;;5051721;28;20274;-68
2022/03/29 04:59:48;;;;;;;;;;;9.40;80.20;;;;;;5057224;28;19970;-68
2022/03/29 05:02:13;;;;;;;;;;;9.40;80.40;;;;;;5050818;28;19966;-68
2022/03/29 05:04:39;;;;;;;;;;;9.40;80.40;;;;;;5051076;28;19988;-68
2022/03/29 05:07:04;;;;;;;;;;;9.30;80.30;;;;;;5053483;28;19959;-68
2022/03/29 05:09:30;;;;;;;;;;;9.30;80.20;;;;;;5060292;28;19927;-68
2022/03/29 05:11:57;;;;;;;;;;;9.30;80.40;;;;;;5061468;28;20427;-68
2022/03/29 05:14:22;;;;;;;;;;;9.30;80.30;;;;;;5055615;28;20411;-68
2022/03/29 05:16:48;;;;;;;;;;;9.30;80.50;;;;;;5057208;28;19917;-68
2022/03/29 05:19:13;;;;;;;;;;;9.30;80.40;;;;;;5059800;28;20477;-68
2022/03/29 05:21:39;;;;;;;;;;;9.30;80.50;;;;;;5058562;28;19920;-68
2022/03/29 05:24:05;;;;;;;;;;;9.30;80.50;;;;;;5059691;28;20000;-68
2022/03/29 05:26:31;;;;;;;;;;;9.20;80.40;;;;;;5060145;28;20011;-68
2022/03/29 05:28:56;;;;;;;;;;;9.20;80.40;;;;;;5061006;28;20026;-68
2022/03/29 05:31:22;;;;;;;;;;;9.20;80.50;;;;;;5053736;28;19921;-68
2022/03/29 05:33:47;;;;;;;;;;;9.20;80.60;;;;;;5055354;28;20293;-68
2022/03/29 05:36:13;;;;;;;;;;;9.20;80.40;;;;;;5057575;28;19916;-68
2022/03/29 05:38:39;;;;;;;;;;;9.20;80.40;;;;;;5054816;28;20015;-68
2022/03/29 05:41:05;;;;;;;;;;;9.20;80.30;;;;;;5054873;28;19941;-68
2022/03/29 05:43:30;;;;;;;;;;;9.20;80.20;;;;;;5048551;28;19967;-68
2022/03/29 05:48:56;;;;;;;;;;;9.20;80.20;;;;;;5052211;28;20014;-68
2022/03/29 05:51:22;;;;;;;;;;;9.20;80.40;;;;;;5059931;28;20445;-68
2022/03/29 05:53:48;;;;;;;;;;;9.20;80.10;;;;;;5054935;28;19920;-68
2022/03/29 05:56:14;;;;;;;;;;;9.20;80.20;;;;;;5053838;28;19909;-68
2022/03/29 05:58:39;;;;;;;;;;;9.20;80.20;;;;;;5061225;28;19985;-68
2022/03/29 06:01:05;;;;;;;;;;;9.20;80.10;;;;;;5057702;28;20039;-68
2022/03/29 06:03:30;;;;;;;;;;;9.20;80.10;;;;;;5054407;28;19912;-68
2022/03/29 06:05:56;;;;;;;;;;;9.20;80.20;;;;;;5055991;28;20034;-68
2022/03/29 06:08:21;;;;;;;;;;;9.20;80.20;;;;;;5056581;28;19912;-68
2022/03/29 06:10:47;;;;;;;;;;;9.20;80.30;;;;;;5053291;28;19976;-68
2022/03/29 06:13:14;;;;;;;;;;;9.20;80.40;;;;;;5056843;28;20015;-68
2022/03/29 06:15:39;;;;;;;;;;;9.20;80.20;;;;;;5055442;28;19917;-68
2022/03/29 06:18:05;;;;;;;;;;;9.20;80.30;;;;;;5048477;28;20407;-68
2022/03/29 06:20:31;;;;;;;;;;;9.20;80.20;;;;;;5043823;28;20320;-68
2022/03/29 06:22:56;;;;;;;;;;;9.30;80.20;;;;;;5053183;28;19912;-68
2022/03/29 06:25:22;;;;;;;;;;;9.20;80.10;;;;;;5062434;28;19962;-68
2022/03/29 06:27:49;;;;;;;;;;;9.20;80.20;;;;;;5056145;28;19908;-68
2022/03/29 06:30:15;;;;;;;;;;;9.20;80.30;;;;;;5055386;28;19917;-68
2022/03/29 06:32:44;;;;;;;;;;;9.20;80.00;;;;;;5052335;28;20030;-68
2022/03/29 06:35:09;;;;;;;;;;;9.20;80.00;;;;;;5058925;28;19916;-68
2022/03/29 06:37:35;;;;;;;;;;;9.30;80.10;;;;;;5054788;28;19953;-68
2022/03/29 06:40:00;;;;;;;;;;;9.30;80.10;;;;;;5052536;28;19912;-68
2022/03/29 06:42:26;;;;;;;;;;;9.30;80.00;;;;;;5056780;28;19939;-68
2022/03/29 06:44:51;;;;;;;;;;;9.30;80.10;;;;;;5046276;28;19920;-68
2022/03/29 06:47:17;;;;;;;;;;;9.30;80.10;;;;;;5052215;28;19913;-68
2022/03/29 06:49:45;;;;;;;;;;;9.30;80.20;;;;;;5054536;28;20648;-68
2022/03/29 06:52:13;;;;;;;;;;;9.30;80.30;;;;;;5046896;28;19912;-68
2022/03/29 06:54:39;;;;;;;;;;;9.30;80.40;;;;;;5051401;28;19923;-68
2022/03/29 06:57:05;;;;;;;;;;;9.30;80.60;;;;;;5056542;28;20274;-68
2022/03/29 06:59:30;;;;;;;;;;;9.30;80.70;;;;;;5057883;28;20290;-68
2022/03/29 07:01:56;;;;;;;;;;;9.30;80.70;;;;;;5038890;28;20008;-68
2022/03/29 07:04:21;;;;;;;;;;;9.30;80.70;;;;;;5055230;28;19912;-68
2022/03/29 07:06:47;;;;;;;;;;;9.30;80.60;;;;;;5047974;28;20003;-68
2022/03/29 07:11:57;;;;;;;;;;;9.30;80.50;;;;;;5051258;28;19943;-68
2022/03/29 07:14:22;;;;;;;;;;;9.30;80.50;;;;;;5039452;28;20353;-68
2022/03/29 07:16:48;;;;;;;;;;;9.40;80.70;;;;;;5058670;28;19909;-68
2022/03/29 07:19:13;;;;;;;;;;;9.40;80.70;;;;;;5052313;28;20451;-68
2022/03/29 07:21:39;;;;;;;;;;;9.40;80.60;;;;;;5051901;28;19996;-68
2022/03/29 07:24:10;;;;;;;;;;;9.40;80.60;;;;;;5054271;28;19962;-68
2022/03/29 07:26:37;;;;;;;;;;;9.40;80.70;;;;;;5073191;28;20050;-68
2022/03/29 07:29:04;;;;;;;;;;;9.40;80.70;;;;;;5059291;28;19927;-68
2022/03/29 07:31:30;;;;;;;;;;;9.40;80.70;;;;;;5046158;28;20297;-68
2022/03/29 07:33:58;;;;;;;;;;;9.40;80.80;;;;;;5039046;28;19919;-68
2022/03/29 07:36:24;;;;;;;;;;;9.40;81.60;;;;;;5054932;28;19909;-68
2022/03/29 07:38:50;;;;;;;;;;;9.40;81.10;;;;;;5050109;28;19920;-68
2022/03/29 07:41:15;;;;;;;;;;;9.40;81.10;;;;;;5034999;28;19913;-68
2022/03/29 07:43:41;;;;;;;;;;;9.40;80.70;;;;;;5057778;28;19909;-68
2022/03/29 07:46:06;;;;;;;;;;;9.40;80.80;;;;;;5056509;28;20017;-68
2022/03/29 07:48:32;;;;;;;;;;;9.40;80.70;;;;;;5053651;28;19921;-68
2022/03/29 07:50:57;;;;;;;;;;;9.40;80.50;;;;;;5057746;28;19913;-68
2022/03/29 07:53:25;;;;;;;;;;;9.40;80.70;;;;;;5056578;28;20007;-68
2022/03/29 07:55:51;;;;;;;;;;;9.40;80.70;;;;;;5051238;28;19912;-68
2022/03/29 07:58:17;;;;;;;;;;;9.40;80.50;;;;;;5060578;28;20359;-68
2022/03/29 08:00:43;;;;;;;;;;;9.40;80.70;;;;;;5058319;28;19953;-68
2022/03/29 08:03:12;;;;;;;;;;;9.40;80.90;;;;;;5051248;28;20018;-68
2022/03/29 08:05:39;;;;;;;;;;;9.40;81.00;;;;;;5052446;28;19924;-68
2022/03/29 08:08:05;;;;;;;;;;;9.40;80.80;;;;;;5056744;28;19928;-68
2022/03/29 08:10:31;;;;;;;;;;;9.50;81.10;;;;;;5061281;28;20327;-68
2022/03/29 08:12:58;;;;;;;;;;;9.50;81.10;;;;;;5050202;28;19913;-68
2022/03/29 08:15:23;;;;;;;;;;;9.50;80.80;;;;;;5053066;28;19908;-68
2022/03/29 08:17:49;;;;;;;;;;;9.50;81.00;;;;;;5044140;28;19946;-68
2022/03/29 08:20:14;;;;;;;;;;;9.50;80.80;;;;;;5040943;28;19928;-68
2022/03/29 08:22:44;;;;;;;;;;;9.50;80.70;;;;;;5056507;28;19916;-68
2022/03/29 08:25:11;;;;;;;;;;;9.50;80.70;;;;;;5058071;28;19913;-69
2022/03/29 08:27:37;;;;;;;;;;;9.50;80.70;;;;;;5059128;28;19912;-68
2022/03/29 08:30:03;;;;;;;;;;;9.50;80.70;;;;;;5058185;28;19909;-68
2022/03/29 08:32:28;;;;;;;;;;;9.50;80.70;;;;;;5053382;28;20407;-68
2022/03/29 08:34:54;;;;;;;;;;;9.60;80.70;;;;;;5058241;28;20191;-68
2022/03/29 08:37:20;;;;;;;;;;;9.60;80.50;;;;;;5033562;28;20023;-68
2022/03/29 08:39:46;;;;;;;;;;;9.60;80.60;;;;;;5043702;28;19982;-68
2022/03/29 08:42:13;;;;;;;;;;;9.60;80.60;;;;;;5058256;28;20746;-68
2022/03/29 08:44:39;;;;;;;;;;;9.60;80.60;;;;;;5056070;28;19917;-68
2022/03/29 08:47:06;;;;;;;;;;;9.60;80.60;;;;;;5044793;28;19924;-68
2022/03/29 08:49:31;;;;;;;;;;;9.60;80.60;;;;;;5060847;28;19917;-68
2022/03/29 08:51:57;;;;;;;;;;;9.70;80.80;;;;;;5063553;28;20011;-68
2022/03/29 08:54:22;;;;;;;;;;;9.70;80.70;;;;;;5041642;28;19916;-68
2022/03/29 08:56:48;;;;;;;;;;;9.70;80.50;;;;;;5057055;28;19923;-68
2022/03/29 08:59:14;;;;;;;;;;;9.70;80.70;;;;;;5062026;28;20411;-68
2022/03/29 09:01:39;;;;;;;;;;;9.70;80.60;;;;;;5041275;28;19920;-68
2022/03/29 09:04:12;;;;;;;;;;;9.70;80.50;;;;;;5054872;28;19920;-68
2022/03/29 09:06:54;;;;;;;;;;;9.80;80.40;;;;;;5058391;28;20107;-68
2022/03/29 09:09:21;;;;;;;;;;;9.80;80.50;;;;;;5050108;28;19912;-68
2022/03/29 09:11:47;;;;;;;;;;;9.80;80.40;;;;;;5057440;28;20342;-68
2022/03/29 09:14:12;;;;;;;;;;;9.80;80.50;;;;;;5059849;28;19931;-68
2022/03/29 09:16:38;;;;;;;;;;;9.90;80.60;;;;;;5062387;28;20332;-68
2022/03/29 09:19:04;;;;;;;;;;;9.80;80.50;;;;;;5059755;28;19971;-68
2022/03/29 09:21:38;;;;;;;;;;;9.90;80.50;;;;;;5056878;28;20729;-68
2022/03/29 09:24:04;;;;;;;;;;;9.90;80.50;;;;;;5061558;28;19909;-68
2022/03/29 09:26:32;;;;;;;;;;;9.90;80.50;;;;;;5062913;28;19959;-68
2022/03/29 09:28:58;;;;;;;;;;;9.90;80.50;;;;;;5060916;28;19916;-68
2022/03/29 09:31:27;;;;;;;;;;;9.90;80.50;;;;;;5038948;28;19958;-68
2022/03/29 09:34:11;;;;;;;;;;;9.90;80.50;;;;;;5056833;28;20579;-68
2022/03/29 09:36:41;;;;;;;;;;;9.90;80.40;;;;;;5058990;28;20011;-68
2022/03/29 09:39:06;;;;;;;;;;;10.00;80.40;;;;;;5060988;28;19913;-68
2022/03/29 09:41:32;;;;;;;;;;;10.00;80.40;;;;;;5059582;28;20365;-68
2022/03/29 09:43:58;;;;;;;;;;;10.00;80.30;;;;;;5063579;28;19948;-68
2022/03/29 09:46:23;;;;;;;;;;;10.00;80.30;;;;;;5054520;28;19955;-68
2022/03/29 09:48:50;;;;;;;;;;;10.10;80.30;;;;;;5057411;28;19920;-68
2022/03/29 09:51:17;;;;;;;;;;;10.10;80.40;;;;;;5061142;28;19925;-68
2022/03/29 09:53:53;;;;;;;;;;;10.10;80.30;;;;;;5057142;28;19921;-68
2022/03/29 09:56:25;;;;;;;;;;;10.10;80.40;;;;;;5051896;28;19917;-68
2022/03/29 09:59:08;;;;;;;;;;;10.10;80.30;;;;;;5060227;28;19909;-68
2022/03/29 10:01:46;;;;;;;;;;;10.20;80.30;;;;;;5058576;28;19913;-68
2022/03/29 10:04:13;;;;;;;;;;;10.10;80.20;;;;;;5053921;28;20628;-68
2022/03/29 10:06:38;;;;;;;;;;;10.20;80.20;;;;;;5057319;28;19995;-68
2022/03/29 10:11:48;;;;;;;;;;;10.20;80.20;;;;;;5055291;28;19922;-68
2022/03/29 10:14:15;;;;;;;;;;;10.30;80.30;;;;;;5057590;28;19913;-68
2022/03/29 10:16:42;;;;;;;;;;;10.30;80.30;;;;;;5061781;28;19916;-67
2022/03/29 10:19:09;;;;;;;;;;;10.30;80.20;;;;;;5046458;28;20263;-68
2022/03/29 10:21:35;;;;;;;;;;;10.30;80.30;;;;;;5055944;28;20510;-68
2022/03/29 10:24:00;;;;;;;;;;;10.40;80.20;;;;;;5061910;28;19919;-68
2022/03/29 10:26:27;;;;;;;;;;;10.30;80.30;;;;;;5062178;28;19913;-68
2022/03/29 10:28:53;;;;;;;;;;;10.40;80.30;;;;;;5060225;28;19940;-68
2022/03/29 10:31:29;;;;;;;;;;;10.40;80.20;;;;;;5054651;28;19916;-68
2022/03/29 10:34:16;;;;;;;;;;;10.40;80.20;;;;;;5054436;28;19966;-68
2022/03/29 10:37:01;;;;;;;;;;;10.40;80.80;;;;;;5058356;28;19947;-68
2022/03/29 10:39:39;;;;;;;;;;;10.50;80.10;;;;;;5056075;28;19909;-68
2022/03/29 10:42:24;;;;;;;;;;;10.50;80.10;;;;;;5046329;28;19928;-68
2022/03/29 10:45:02;;;;;;;;;;;10.50;80.20;;;;;;5049660;28;19924;-67
2022/03/29 10:47:28;;;;;;;;;;;10.50;80.00;;;;;;5060532;28;20285;-68
2022/03/29 10:49:54;;;;;;;;;;;10.50;80.10;;;;;;5059014;28;19957;-67
2022/03/29 10:52:22;;;;;;;;;;;10.60;80.10;;;;;;5062035;28;19916;-68
2022/03/29 10:54:49;;;;;;;;;;;10.60;80.20;;;;;;5054587;28;19913;-68
2022/03/29 10:57:18;;;;;;;;;;;10.70;80.00;;;;;;5057087;28;19916;-68
2022/03/29 10:59:49;;;;;;;;;;;10.70;79.90;;;;;;5063943;28;19953;-68
2022/03/29 11:02:14;;;;;;;;;;;10.80;79.50;;;;;;5060271;28;19991;-68
2022/03/29 11:04:58;;;;;;;;;;;10.90;79.30;;;;;;5034501;28;20047;-68
2022/03/29 11:07:24;;;;;;;;;;;10.90;79.30;;;;;;5056526;28;19935;-68
2022/03/29 11:10:05;;;;;;;;;;;10.90;79.10;;;;;;5062918;28;20432;-68
2022/03/29 11:12:40;;;;;;;;;;;11.00;79.10;;;;;;5053597;28;19916;-68
2022/03/29 11:15:24;;;;;;;;;;;11.10;79.10;;;;;;5056557;28;19915;-68
2022/03/29 11:17:50;;;;;;;;;;;11.10;78.90;;;;;;5045080;28;20585;-68
2022/03/29 11:20:35;;;;;;;;;;;11.10;78.90;;;;;;5049082;28;19908;-68
2022/03/29 11:23:06;;;;;;;;;;;11.20;78.80;;;;;;5058309;28;19913;-68
2022/03/29 11:25:42;;;;;;;;;;;11.20;78.70;;;;;;5061097;28;19908;-68
2022/03/29 11:28:09;;;;;;;;;;;11.20;78.60;;;;;;5062636;28;20051;-68
2022/03/29 11:30:35;;;;;;;;;;;11.30;78.70;;;;;;5054927;28;19912;-68
2022/03/29 11:33:02;;;;;;;;;;;11.40;78.50;;;;;;5056379;28;19967;-68
2022/03/29 11:35:27;;;;;;;;;;;11.40;78.20;;;;;;5063456;28;20006;-68
2022/03/29 11:37:53;;;;;;;;;;;11.50;78.20;;;;;;5047015;28;19912;-68
2022/03/29 11:40:23;;;;;;;;;;;11.50;78.10;;;;;;5057815;28;19923;-68
2022/03/29 11:42:53;;;;;;;;;;;11.50;77.90;;;;;;5063195;28;19955;-68
2022/03/29 11:45:23;;;;;;;;;;;11.60;77.80;;;;;;5058020;28;20011;-68
2022/03/29 11:47:55;;;;;;;;;;;11.60;77.80;;;;;;5052244;28;19989;-68
2022/03/29 11:50:40;;;;;;;;;;;11.70;77.90;;;;;;5060729;28;19940;-68
2022/03/29 11:53:23;;;;;;;;;;;11.60;78.00;;;;;;5063676;28;19923;-68
2022/03/29 11:55:57;;;;;;;;;;;11.70;78.10;;;;;;5058832;28;20293;-68
2022/03/29 11:58:24;;;;;;;;;;;11.70;78.20;;;;;;5044546;28;20404;-68
2022/03/29 12:00:49;;;;;;;;;;;11.70;78.10;;;;;;5062915;28;19919;-68
2022/03/29 12:03:26;;;;;;;;;;;11.80;78.00;;;;;;5054282;28;19916;-68
2022/03/29 12:06:01;;;;;;;;;;;11.80;77.90;;;;;;5053929;28;19909;-67
2022/03/29 12:08:41;;;;;;;;;;;11.80;77.90;;;;;;5058398;28;19917;-68
2022/03/29 12:11:08;;;;;;;;;;;11.80;77.80;;;;;;5054858;28;19909;-68
2022/03/29 12:13:34;;;;;;;;;;;11.80;77.90;;;;;;5054824;28;20395;-68
2022/03/29 12:16:13;;;;;;;;;;;11.80;77.90;;;;;;5047897;28;20007;-68
2022/03/29 12:18:42;;;;;;;;;;;11.80;77.80;;;;;;5061860;28;20008;-68
2022/03/29 12:21:11;;;;;;;;;;;11.80;77.80;;;;;;5053650;28;19990;-68
2022/03/29 12:23:41;;;;;;;;;;;11.80;77.70;;;;;;5058113;28;19919;-68
2022/03/29 12:26:08;;;;;;;;;;;11.90;77.80;;;;;;5062705;28;19908;-68
2022/03/29 12:28:33;;;;;;;;;;;11.90;77.70;;;;;;5055608;28;19932;-68
2022/03/29 12:30:59;;;;;;;;;;;11.90;77.60;;;;;;5053314;28;19913;-68
2022/03/29 12:33:24;;;;;;;;;;;11.90;77.60;;;;;;5056567;28;19924;-68
2022/03/29 12:36:10;;;;;;;;;;;12.00;77.60;;;;;;5057728;28;19917;-68
2022/03/29 12:38:39;;;;;;;;;;;12.00;77.60;;;;;;5056811;28;20454;-68
2022/03/29 12:41:05;;;;;;;;;;;12.00;77.60;;;;;;5058573;28;19977;-68
2022/03/29 12:43:33;;;;;;;;;;;12.00;77.40;;;;;;5061244;28;19915;-68
2022/03/29 12:45:59;;;;;;;;;;;12.10;77.30;;;;;;5049903;28;19909;-68
2022/03/29 12:48:28;;;;;;;;;;;12.10;77.20;;;;;;5052092;28;20568;-68
2022/03/29 12:50:54;;;;;;;;;;;12.20;77.10;;;;;;5045155;28;20253;-68
2022/03/29 12:53:19;;;;;;;;;;;12.20;76.90;;;;;;5044693;28;19939;-68
2022/03/29 12:55:59;;;;;;;;;;;12.20;76.70;;;;;;5052766;28;20027;-68
2022/03/29 12:58:37;;;;;;;;;;;12.30;76.70;;;;;;5056554;28;19917;-68
2022/03/29 13:01:03;;;;;;;;;;;12.30;76.60;;;;;;5059217;28;19921;-68
2022/03/29 13:03:35;;;;;;;;;;;12.30;76.50;;;;;;5046067;28;19920;-68
2022/03/29 13:06:03;;;;;;;;;;;12.40;76.50;;;;;;5054111;28;20019;-68
2022/03/29 13:08:30;;;;;;;;;;;12.40;76.60;;;;;;5059830;28;19909;-68
2022/03/29 13:10:56;;;;;;;;;;;12.40;76.50;;;;;;5060281;28;19912;-68
2022/03/29 13:13:28;;;;;;;;;;;12.50;76.40;;;;;;5053599;28;20673;-68
2022/03/29 13:15:55;;;;;;;;;;;12.50;76.30;;;;;;5042879;28;19908;-68
2022/03/29 13:18:20;;;;;;;;;;;12.50;76.20;;;;;;5059350;28;19920;-68
2022/03/29 13:20:46;;;;;;;;;;;12.60;76.10;;;;;;5052472;28;20336;-68
2022/03/29 13:23:12;;;;;;;;;;;12.60;76.00;;;;;;5055510;28;19959;-68
2022/03/29 13:25:37;;;;;;;;;;;12.60;75.80;;;;;;5061059;28;19948;-68
2022/03/29 13:28:04;;;;;;;;;;;12.70;75.70;;;;;;5057986;28;19912;-68
2022/03/29 13:30:30;;;;;;;;;;;12.70;75.70;;;;;;5056278;28;20016;-68
2022/03/29 13:32:56;;;;;;;;;;;12.70;75.60;;;;;;5058611;28;19948;-68
2022/03/29 13:35:22;;;;;;;;;;;12.80;75.60;;;;;;5061245;28;19916;-68
2022/03/29 13:37:47;;;;;;;;;;;12.80;75.50;;;;;;5055944;28;19920;-68
2022/03/29 13:40:16;;;;;;;;;;;12.80;75.50;;;;;;5059338;28;19908;-68
2022/03/29 13:42:41;;;;;;;;;;;12.80;75.30;;;;;;5047422;28;19908;-68
2022/03/29 13:45:09;;;;;;;;;;;12.90;75.40;;;;;;5043825;28;19998;-68
2022/03/29 13:47:35;;;;;;;;;;;12.90;75.30;;;;;;5053739;28;19916;-68
2022/03/29 13:50:01;;;;;;;;;;;12.90;75.30;;;;;;5059918;28;19919;-68
2022/03/29 13:52:29;;;;;;;;;;;13.00;75.20;;;;;;5065268;28;19912;-68
2022/03/29 13:54:55;;;;;;;;;;;13.00;75.00;;;;;;5052566;28;20545;-68
2022/03/29 13:57:20;;;;;;;;;;;13.10;74.90;;;;;;5057532;28;19908;-68
2022/03/29 13:59:46;;;;;;;;;;;13.10;74.90;;;;;;5064518;28;20022;-68
2022/03/29 14:02:14;;;;;;;;;;;13.10;74.80;;;;;;5056960;28;19962;-68
2022/03/29 14:04:40;;;;;;;;;;;13.10;74.80;;;;;;5060971;28;19916;-67
2022/03/29 14:07:06;;;;;;;;;;;13.20;74.80;;;;;;5060839;28;19920;-68
2022/03/29 14:09:31;;;;;;;;;;;13.10;74.80;;;;;;5064086;28;20553;-68
2022/03/29 14:11:57;;;;;;;;;;;13.20;74.80;;;;;;5050849;28;19912;-68
2022/03/29 14:14:23;;;;;;;;;;;13.20;74.70;;;;;;5057223;28;19920;-68
2022/03/29 14:16:51;;;;;;;;;;;13.20;74.70;;;;;;5062217;28;19968;-67
2022/03/29 14:19:17;;;;;;;;;;;13.20;74.50;;;;;;5060483;28;19919;-68
2022/03/29 14:21:43;;;;;;;;;;;13.30;74.50;;;;;;5060175;28;20264;-68
2022/03/29 14:24:08;;;;;;;;;;;13.30;74.30;;;;;;5059019;28;19912;-68
2022/03/29 14:26:34;;;;;;;;;;;13.30;74.30;;;;;;5058580;28;19955;-67
2022/03/29 14:29:02;;;;;;;;;;;13.40;74.20;;;;;;5059160;28;19948;-67
2022/03/29 14:31:28;;;;;;;;;;;13.40;74.10;;;;;;5054201;28;19916;-67